Time;durP1;ratioP1;P1;durP2;ratioP2;P2;SDS_P1;SDS_P2;PMS_P1;PMS_P2;Temp;Humidity;BMP_temperature;BMP_pressure;BME280_temperature;BME280_humidity;BME280_pressure;Samples;Min_cycle;Max_cycle;Signal;HPM_P1;HPM_P2
2023/09/01 00:01:05;;;;;;;;;;;;;;;;;;4855965;29;20288;-79
2023/09/01 00:03:30;;;;;;;;;;;;;;;;;;4873537;29;19935;-82
2023/09/01 00:05:58;;;;;;;;;;;;;;;;;;4842220;29;19916;-80
2023/09/01 00:08:25;;;;;;;;;;;;;;;;;;4850574;29;19919;-79
2023/09/01 00:10:50;;;;;;;;;;;;;;;;;;4855142;29;20001;-79
2023/09/01 00:13:15;;;;;;;;;;;;;;;;;;4873547;29;20436;-79
2023/09/01 00:15:40;;;;;;;;;;;;;;;;;;4854974;29;19919;-79
2023/09/01 00:18:06;;;;;;;;;;;;;;;;;;4866093;29;20295;-80
2023/09/01 00:20:34;;;;;;;;;;;;;;;;;;4854227;29;20281;-79
2023/09/01 00:22:59;;;;;;;;;;;;;;;;;;4850790;29;20364;-80
2023/09/01 00:25:25;;;;;;;;;;;;;;;;;;4858846;29;19926;-80
2023/09/01 00:27:50;;;;;;;;;;;;;;;;;;4853392;29;20365;-79
2023/09/01 00:30:15;;;;;;;;;;;;;;;;;;4859071;29;19983;-80
2023/09/01 00:32:42;;;;;;;;;;;;;;;;;;4861267;29;19920;-80
2023/09/01 00:35:08;;;;;;;;;;;;;;;;;;4852083;29;20035;-79
2023/09/01 00:37:33;;;;;;;;;;;;;;;;;;4849119;29;20006;-79
2023/09/01 00:39:58;;;;;;;;;;;;;;;;;;4855040;29;19916;-79
2023/09/01 00:42:23;;;;;;;;;;;;;;;;;;4848942;29;20408;-80
2023/09/01 00:44:49;;;;;;;;;;;;;;;;;;4867739;29;19923;-79
2023/09/01 00:47:14;;;;;;;;;;;;;;;;;;4864772;29;19967;-79
2023/09/01 00:49:40;;;;;;;;;;;;;;;;;;4853856;29;20809;-80
2023/09/01 00:52:05;;;;;;;;;;;;;;;;;;4841830;29;19928;-80
2023/09/01 00:54:33;;;;;;;;;;;;;;;;;;4845657;29;19920;-79
2023/09/01 00:56:59;;;;;;;;;;;;;;;;;;4853622;29;19915;-79
2023/09/01 00:59:24;;;;;;;;;;;;;;;;;;4873398;29;20835;-79
2023/09/01 01:01:50;;;;;;;;;;;;;;;;;;4851905;29;19919;-80
2023/09/01 01:04:15;;;;;;;;;;;;;;;;;;4850420;29;20006;-81
2023/09/01 01:06:59;;;;;;;;;;;;;;;;;;4854786;29;19925;-80
2023/09/01 01:09:31;;;;;;;;;;;;;;;;;;4851136;29;20364;-79
2023/09/01 01:12:00;;;;;;;;;;;;;;;;;;4849023;29;19920;-80
2023/09/01 01:14:26;;;;;;;;;;;;;;;;;;4852703;29;19920;-80
2023/09/01 01:16:52;;;;;;;;;;;;;;;;;;4873308;29;19930;-80
2023/09/01 01:19:32;;;;;;;;;;;;;;;;;;4850503;29;19919;-79
2023/09/01 01:21:59;;;;;;;;;;;;;;;;;;4878788;29;19924;-80
2023/09/01 01:24:25;;;;;;;;;;;;;;;;;;4861591;29;19919;-81
2023/09/01 01:26:50;;;;;;;;;;;;;;;;;;4817057;29;19988;-80
2023/09/01 01:29:16;;;;;;;;;;;;;;;;;;4846984;29;19923;-78
2023/09/01 01:31:42;;;;;;;;;;;;;;;;;;4851199;29;20420;-79
2023/09/01 01:34:10;;;;;;;;;;;;;;;;;;4850852;29;19924;-80
2023/09/01 01:36:38;;;;;;;;;;;;;;;;;;4849323;29;20001;-79
2023/09/01 01:39:05;;;;;;;;;;;;;;;;;;4860318;29;19926;-80
2023/09/01 01:41:55;;;;;;;;;;;;;;;;;;4851616;29;20241;-79
2023/09/01 01:44:21;;;;;;;;;;;;;;;;;;4864548;29;19965;-79
2023/09/01 01:46:46;;;;;;;;;;;;;;;;;;4840349;29;19967;-79
2023/09/01 01:49:11;;;;;;;;;;;;;;;;;;4850667;29;19920;-79
2023/09/01 01:51:37;;;;;;;;;;;;;;;;;;4848124;29;19923;-80
2023/09/01 01:54:02;;;;;;;;;;;;;;;;;;4849586;29;19943;-79
2023/09/01 01:56:28;;;;;;;;;;;;;;;;;;4838907;29;20053;-79
2023/09/01 01:58:53;;;;;;;;;;;;;;;;;;4869047;29;19924;-79
2023/09/01 02:01:18;;;;;;;;;;;;;;;;;;4868271;29;19919;-80
2023/09/01 02:03:44;;;;;;;;;;;;;;;;;;4852818;29;19927;-80
2023/09/01 02:06:12;;;;;;;;;;;;;;;;;;4848162;29;19926;-79
2023/09/01 02:08:37;;;;;;;;;;;;;;;;;;4847837;29;20332;-79
2023/09/01 02:11:03;;;;;;;;;;;;;;;;;;4857683;29;19928;-79
2023/09/01 02:13:30;;;;;;;;;;;;;;;;;;4846810;29;19920;-80
2023/09/01 02:15:55;;;;;;;;;;;;;;;;;;4854537;29;19924;-80
2023/09/01 02:18:20;;;;;;;;;;;;;;;;;;4851045;29;19950;-79
2023/09/01 02:20:46;;;;;;;;;;;;;;;;;;4857877;29;20018;-79
2023/09/01 02:23:13;;;;;;;;;;;;;;;;;;4845785;29;20404;-79
2023/09/01 02:25:39;;;;;;;;;;;;;;;;;;4850214;29;19924;-79
2023/09/01 02:28:04;;;;;;;;;;;;;;;;;;4846437;29;20311;-79
2023/09/01 02:30:30;;;;;;;;;;;;;;;;;;4851560;29;19930;-79
2023/09/01 02:32:56;;;;;;;;;;;;;;;;;;4852154;29;19916;-78
2023/09/01 02:35:21;;;;;;;;;;;;;;;;;;4851657;29;19926;-79
2023/09/01 02:37:46;;;;;;;;;;;;;;;;;;4837016;29;19915;-78
2023/09/01 02:40:12;;;;;;;;;;;;;;;;;;4854500;29;19971;-79
2023/09/01 02:42:41;;;;;;;;;;;;;;;;;;4840091;29;20630;-79
2023/09/01 02:45:07;;;;;;;;;;;;;;;;;;4851397;29;20264;-78
2023/09/01 02:47:33;;;;;;;;;;;;;;;;;;4861401;29;19951;-79
2023/09/01 02:49:58;;;;;;;;;;;;;;;;;;4875954;29;19926;-79
2023/09/01 02:52:23;;;;;;;;;;;;;;;;;;4869033;29;19986;-79
2023/09/01 02:54:49;;;;;;;;;;;;;;;;;;4852909;29;20668;-79
2023/09/01 02:57:14;;;;;;;;;;;;;;;;;;4851055;29;20444;-79
2023/09/01 02:59:39;;;;;;;;;;;;;;;;;;4858714;29;19923;-79
2023/09/01 03:02:05;;;;;;;;;;;;;;;;;;4842175;29;20014;-80
2023/09/01 03:04:30;;;;;;;;;;;;;;;;;;4845900;29;19975;-79
2023/09/01 03:06:56;;;;;;;;;;;;;;;;;;4860893;29;19969;-80
2023/09/01 03:09:24;;;;;;;;;;;;;;;;;;4857992;29;19919;-79
2023/09/01 03:11:49;;;;;;;;;;;;;;;;;;4842332;29;19924;-79
2023/09/01 03:14:15;;;;;;;;;;;;;;;;;;4851215;29;19927;-79
2023/09/01 03:16:41;;;;;;;;;;;;;;;;;;4850340;29;20434;-80
2023/09/01 03:19:07;;;;;;;;;;;;;;;;;;4853054;29;20300;-80
2023/09/01 03:21:32;;;;;;;;;;;;;;;;;;4851825;29;19919;-79
2023/09/01 03:23:58;;;;;;;;;;;;;;;;;;4852397;29;19915;-79
2023/09/01 03:26:23;;;;;;;;;;;;;;;;;;4855708;29;19967;-79
2023/09/01 03:28:49;;;;;;;;;;;;;;;;;;4870150;29;20368;-80
2023/09/01 03:31:14;;;;;;;;;;;;;;;;;;4869264;29;19927;-80
2023/09/01 03:33:40;;;;;;;;;;;;;;;;;;4866464;29;19922;-81
2023/09/01 03:36:07;;;;;;;;;;;;;;;;;;4853396;29;19931;-79
2023/09/01 03:38:33;;;;;;;;;;;;;;;;;;4852315;29;20269;-80
2023/09/01 03:41:00;;;;;;;;;;;;;;;;;;4859485;29;19987;-80
2023/09/01 03:43:26;;;;;;;;;;;;;;;;;;4854406;29;19919;-79
2023/09/01 03:45:51;;;;;;;;;;;;;;;;;;4859120;29;19952;-80
2023/09/01 03:48:16;;;;;;;;;;;;;;;;;;4850600;29;19925;-80
2023/09/01 03:50:51;;;;;;;;;;;;;;;;;;4849346;29;20455;-80
2023/09/01 03:53:16;;;;;;;;;;;;;;;;;;4862354;29;20647;-80
2023/09/01 03:55:42;;;;;;;;;;;;;;;;;;4871300;29;19919;-79
2023/09/01 03:58:07;;;;;;;;;;;;;;;;;;4843952;29;19995;-79
2023/09/01 04:00:32;;;;;;;;;;;;;;;;;;4850682;29;19926;-78
2023/09/01 04:02:58;;;;;;;;;;;;;;;;;;4853850;29;19938;-80
2023/09/01 04:05:23;;;;;;;;;;;;;;;;;;4850331;29;20026;-78
2023/09/01 04:07:48;;;;;;;;;;;;;;;;;;4850804;29;19926;-80
2023/09/01 04:10:14;;;;;;;;;;;;;;;;;;4852947;29;19927;-80
2023/09/01 04:12:42;;;;;;;;;;;;;;;;;;4839958;29;19922;-80
2023/09/01 04:15:08;;;;;;;;;;;;;;;;;;4851194;29;19920;-80
2023/09/01 04:17:33;;;;;;;;;;;;;;;;;;4829638;29;19915;-88
2023/09/01 04:19:59;;;;;;;;;;;;;;;;;;4852189;29;19922;-80
2023/09/01 04:22:24;;;;;;;;;;;;;;;;;;4863681;29;19920;-80
2023/09/01 04:24:51;;;;;;;;;;;;;;;;;;4854164;29;19943;-80
2023/09/01 04:27:16;;;;;;;;;;;;;;;;;;4848784;29;19992;-80
2023/09/01 04:29:42;;;;;;;;;;;;;;;;;;4854014;29;19915;-81
2023/09/01 04:32:07;;;;;;;;;;;;;;;;;;4837022;29;19963;-80
2023/09/01 04:34:36;;;;;;;;;;;;;;;;;;4853646;29;19951;-80
2023/09/01 04:37:04;;;;;;;;;;;;;;;;;;4873668;29;19919;-81
2023/09/01 04:39:29;;;;;;;;;;;;;;;;;;4857550;29;19923;-81
2023/09/01 04:42:09;;;;;;;;;;;;;;;;;;4869792;29;19919;-83
2023/09/01 04:44:34;;;;;;;;;;;;;;;;;;4874516;29;19916;-84
2023/09/01 04:46:59;;;;;;;;;;;;;;;;;;4851278;29;19926;-83
2023/09/01 04:49:27;;;;;;;;;;;;;;;;;;4853564;29;19915;-83
2023/09/01 04:51:56;;;;;;;;;;;;;;;;;;4853259;29;19947;-84
2023/09/01 04:54:21;;;;;;;;;;;;;;;;;;4844993;29;19926;-85
2023/09/01 04:56:48;;;;;;;;;;;;;;;;;;4840834;29;19923;-78
2023/09/01 04:59:23;;;;;;;;;;;;;;;;;;4844689;29;19962;-80
2023/09/01 05:01:49;;;;;;;;;;;;;;;;;;4849888;29;20390;-82
2023/09/01 05:04:15;;;;;;;;;;;;;;;;;;4849814;29;19920;-81
2023/09/01 05:06:44;;;;;;;;;;;;;;;;;;4839215;29;19955;-82
2023/09/01 05:09:09;;;;;;;;;;;;;;;;;;4848553;29;19964;-82
2023/09/01 05:11:35;;;;;;;;;;;;;;;;;;4842038;29;20080;-82
2023/09/01 05:14:00;;;;;;;;;;;;;;;;;;4855266;29;19926;-83
2023/09/01 05:16:25;;;;;;;;;;;;;;;;;;4852021;29;19915;-82
2023/09/01 05:18:51;;;;;;;;;;;;;;;;;;4845928;29;19947;-82
2023/09/01 05:21:16;;;;;;;;;;;;;;;;;;4850915;29;20420;-83
2023/09/01 05:23:41;;;;;;;;;;;;;;;;;;4853821;29;19927;-82
2023/09/01 05:26:07;;;;;;;;;;;;;;;;;;4856111;29;20082;-82
2023/09/01 05:28:32;;;;;;;;;;;;;;;;;;4842769;29;19927;-82
2023/09/01 05:30:57;;;;;;;;;;;;;;;;;;4849054;29;19924;-82
2023/09/01 05:33:25;;;;;;;;;;;;;;;;;;4853124;29;20014;-82
2023/09/01 05:35:50;;;;;;;;;;;;;;;;;;4848389;29;19947;-82
2023/09/01 05:38:16;;;;;;;;;;;;;;;;;;4865486;29;20365;-82
2023/09/01 05:40:41;;;;;;;;;;;;;;;;;;4848168;29;20371;-82
2023/09/01 05:43:06;;;;;;;;;;;;;;;;;;4871716;29;19919;-86
2023/09/01 05:45:41;;;;;;;;;;;;;;;;;;4870850;29;19919;-83
2023/09/01 05:48:06;;;;;;;;;;;;;;;;;;4857671;29;19959;-83
2023/09/01 05:50:34;;;;;;;;;;;;;;;;;;4840290;29;20624;-84
2023/09/01 05:53:00;;;;;;;;;;;;;;;;;;4855292;29;20364;-82
2023/09/01 05:55:25;;;;;;;;;;;;;;;;;;4876270;29;19919;-84
2023/09/01 05:57:54;;;;;;;;;;;;;;;;;;4849041;29;19915;-84
2023/09/01 06:00:24;;;;;;;;;;;;;;;;;;4836361;29;19919;-82
2023/09/01 06:02:51;;;;;;;;;;;;;;;;;;4843499;29;19928;-81
2023/09/01 06:05:16;;;;;;;;;;;;;;;;;;4851648;29;20014;-83
2023/09/01 06:07:42;;;;;;;;;;;;;;;;;;4862298;29;20011;-83
2023/09/01 06:10:08;;;;;;;;;;;;;;;;;;4845334;29;20042;-82
2023/09/01 06:12:33;;;;;;;;;;;;;;;;;;4857546;29;19916;-82
2023/09/01 06:14:58;;;;;;;;;;;;;;;;;;4843552;29;19952;-83
2023/09/01 06:17:23;;;;;;;;;;;;;;;;;;4844258;29;19915;-83
2023/09/01 06:19:49;;;;;;;;;;;;;;;;;;4856692;29;20384;-83
2023/09/01 06:22:14;;;;;;;;;;;;;;;;;;4844074;29;19924;-83
2023/09/01 06:24:39;;;;;;;;;;;;;;;;;;4858728;29;19927;-84
2023/09/01 06:27:14;;;;;;;;;;;;;;;;;;4853460;29;19964;-84
2023/09/01 06:29:39;;;;;;;;;;;;;;;;;;4857520;29;20286;-84
2023/09/01 06:32:05;;;;;;;;;;;;;;;;;;4862613;29;19924;-82
2023/09/01 06:34:33;;;;;;;;;;;;;;;;;;4851328;29;19919;-82
2023/09/01 06:36:58;;;;;;;;;;;;;;;;;;4844947;29;20451;-82
2023/09/01 06:39:26;;;;;;;;;;;;;;;;;;4861979;29;20002;-83
2023/09/01 06:41:51;;;;;;;;;;;;;;;;;;4850277;29;19968;-83
2023/09/01 06:44:17;;;;;;;;;;;;;;;;;;4876310;29;19931;-83
2023/09/01 06:46:42;;;;;;;;;;;;;;;;;;4852646;29;19919;-83
2023/09/01 06:49:07;;;;;;;;;;;;;;;;;;4859730;29;19927;-83
2023/09/01 06:51:33;;;;;;;;;;;;;;;;;;4854917;29;20387;-84
2023/09/01 06:53:58;;;;;;;;;;;;;;;;;;4848061;29;19920;-83
2023/09/01 06:56:24;;;;;;;;;;;;;;;;;;4853595;29;19915;-84
2023/09/01 06:58:49;;;;;;;;;;;;;;;;;;4853774;29;19950;-84
2023/09/01 07:01:15;;;;;;;;;;;;;;;;;;4852815;29;19983;-84
2023/09/01 07:03:42;;;;;;;;;;;;;;;;;;4877812;29;19975;-83
2023/09/01 07:06:07;;;;;;;;;;;;;;;;;;4851608;29;20264;-82
2023/09/01 07:08:32;;;;;;;;;;;;;;;;;;4855653;29;19923;-83
2023/09/01 07:11:04;;;;;;;;;;;;;;;;;;4867917;29;20273;-83
2023/09/01 07:13:30;;;;;;;;;;;;;;;;;;4862216;29;20411;-83
2023/09/01 07:15:55;;;;;;;;;;;;;;;;;;4847485;29;20002;-83
2023/09/01 07:18:22;;;;;;;;;;;;;;;;;;4871622;29;19919;-84
2023/09/01 07:20:48;;;;;;;;;;;;;;;;;;4835476;29;20411;-83
2023/09/01 07:23:13;;;;;;;;;;;;;;;;;;4841944;29;19962;-84
2023/09/01 07:25:39;;;;;;;;;;;;;;;;;;4841899;29;19919;-84
2023/09/01 07:28:06;;;;;;;;;;;;;;;;;;4848496;29;20376;-82
2023/09/01 07:30:34;;;;;;;;;;;;;;;;;;4846935;29;19930;-83
2023/09/01 07:33:03;;;;;;;;;;;;;;;;;;4853641;29;19936;-83
2023/09/01 07:35:28;;;;;;;;;;;;;;;;;;4855170;29;20294;-83
2023/09/01 07:37:57;;;;;;;;;;;;;;;;;;4847912;29;19964;-84
2023/09/01 07:40:22;;;;;;;;;;;;;;;;;;4855333;29;19919;-83
2023/09/01 07:42:48;;;;;;;;;;;;;;;;;;4856093;29;19925;-83
2023/09/01 07:45:13;;;;;;;;;;;;;;;;;;4845486;29;19919;-83
2023/09/01 07:47:39;;;;;;;;;;;;;;;;;;4842946;29;19920;-84
2023/09/01 07:50:05;;;;;;;;;;;;;;;;;;4851731;29;19925;-83
2023/09/01 07:52:30;;;;;;;;;;;;;;;;;;4852675;29;19920;-82
2023/09/01 07:54:55;;;;;;;;;;;;;;;;;;4852005;29;20411;-84
2023/09/01 07:57:21;;;;;;;;;;;;;;;;;;4844239;29;19919;-83
2023/09/01 07:59:46;;;;;;;;;;;;;;;;;;4843158;29;21442;-84
2023/09/01 08:02:12;;;;;;;;;;;;;;;;;;4852290;29;19928;-84
2023/09/01 08:04:37;;;;;;;;;;;;;;;;;;4873320;29;19930;-83
2023/09/01 08:07:03;;;;;;;;;;;;;;;;;;4842711;29;19990;-82
2023/09/01 08:09:32;;;;;;;;;;;;;;;;;;4846132;29;19919;-84
2023/09/01 08:11:57;;;;;;;;;;;;;;;;;;4860718;29;19924;-84
2023/09/01 08:14:22;;;;;;;;;;;;;;;;;;4856699;29;19930;-84
2023/09/01 08:16:48;;;;;;;;;;;;;;;;;;4853442;29;19924;-84
2023/09/01 08:19:15;;;;;;;;;;;;;;;;;;4877560;29;19961;-84
2023/09/01 08:21:41;;;;;;;;;;;;;;;;;;4855119;29;19919;-85
2023/09/01 08:24:12;;;;;;;;;;;;;;;;;;4856012;29;19920;-84
2023/09/01 08:26:39;;;;;;;;;;;;;;;;;;4862633;29;19919;-84
2023/09/01 08:29:04;;;;;;;;;;;;;;;;;;4846877;29;19923;-83
2023/09/01 08:31:32;;;;;;;;;;;;;;;;;;4843930;29;20611;-84
2023/09/01 08:33:57;;;;;;;;;;;;;;;;;;4844200;29;19920;-82
2023/09/01 08:36:29;;;;;;;;;;;;;;;;;;4828865;29;20374;-83
2023/09/01 08:38:54;;;;;;;;;;;;;;;;;;4871665;29;19920;-85
2023/09/01 08:41:22;;;;;;;;;;;;;;;;;;4847814;29;19922;-83
2023/09/01 08:43:48;;;;;;;;;;;;;;;;;;4844878;29;20014;-84
2023/09/01 08:46:15;;;;;;;;;;;;;;;;;;4850525;29;19971;-84
2023/09/01 08:48:41;;;;;;;;;;;;;;;;;;4851316;29;19930;-84
2023/09/01 08:51:08;;;;;;;;;;;;;;;;;;4848866;29;19927;-84
2023/09/01 08:53:33;;;;;;;;;;;;;;;;;;4854123;29;19919;-85
2023/09/01 08:55:59;;;;;;;;;;;;;;;;;;4839391;29;20392;-83
2023/09/01 08:58:27;;;;;;;;;;;;;;;;;;4845765;29;20527;-84
2023/09/01 09:00:52;;;;;;;;;;;;;;;;;;4852577;29;19919;-84
2023/09/01 09:03:18;;;;;;;;;;;;;;;;;;4841940;29;19943;-84
2023/09/01 09:05:46;;;;;;;;;;;;;;;;;;4842631;29;19926;-83
2023/09/01 09:08:12;;;;;;;;;;;;;;;;;;4848326;29;20030;-84
2023/09/01 09:10:46;;;;;;;;;;;;;;;;;;4857567;29;20885;-85
2023/09/01 09:13:27;;;;;;;;;;;;;;;;;;4857553;29;20038;-84
2023/09/01 09:16:05;;;;;;;;;;;;;;;;;;4853109;29;20353;-84
2023/09/01 09:18:30;;;;;;;;;;;;;;;;;;4881729;29;19923;-84
2023/09/01 09:20:56;;;;;;;;;;;;;;;;;;4832311;29;19927;-85
2023/09/01 09:23:43;;;;;;;;;;;;;;;;;;4852643;29;19951;-84
2023/09/01 09:26:08;;;;;;;;;;;;;;;;;;4864164;29;19919;-83
2023/09/01 09:28:33;;;;;;;;;;;;;;;;;;4854007;29;19926;-84
2023/09/01 09:31:05;;;;;;;;;;;;;;;;;;4850247;29;19924;-84
2023/09/01 09:33:32;;;;;;;;;;;;;;;;;;4860258;29;20017;-84
2023/09/01 09:35:57;;;;;;;;;;;;;;;;;;4857482;29;20269;-84
2023/09/01 09:38:23;;;;;;;;;;;;;;;;;;4861728;29;19926;-83
2023/09/01 09:40:57;;;;;;;;;;;;;;;;;;4810868;29;20355;-84
2023/09/01 09:43:27;;;;;;;;;;;;;;;;;;4853886;29;19920;-84
2023/09/01 09:45:54;;;;;;;;;;;;;;;;;;4847203;29;20075;-83
2023/09/01 09:48:20;;;;;;;;;;;;;;;;;;4843897;29;19958;-84
2023/09/01 09:50:46;;;;;;;;;;;;;;;;;;4847685;29;19946;-84
2023/09/01 09:53:11;;;;;;;;;;;;;;;;;;4855166;29;19926;-84
2023/09/01 09:55:46;;;;;;;;;;;;;;;;;;4839686;29;19916;-84
2023/09/01 09:58:11;;;;;;;;;;;;;;;;;;4835269;29;19920;-84
2023/09/01 10:00:57;;;;;;;;;;;;;;;;;;4849404;29;19922;-84
2023/09/01 10:03:31;;;;;;;;;;;;;;;;;;4873781;29;19923;-84
2023/09/01 10:06:00;;;;;;;;;;;;;;;;;;4838602;29;20002;-83
2023/09/01 10:08:25;;;;;;;;;;;;;;;;;;4844249;29;20315;-84
2023/09/01 10:10:51;;;;;;;;;;;;;;;;;;4852447;29;19930;-83
2023/09/01 10:13:16;;;;;;;;;;;;;;;;;;4823614;29;19984;-83
2023/09/01 10:15:42;;;;;;;;;;;;;;;;;;4861814;29;20439;-83
2023/09/01 10:18:08;;;;;;;;;;;;;;;;;;4850705;29;20292;-84
2023/09/01 10:20:40;;;;;;;;;;;;;;;;;;4857682;29;20068;-83
2023/09/01 10:23:07;;;;;;;;;;;;;;;;;;4860070;29;19926;-83
2023/09/01 10:25:34;;;;;;;;;;;;;;;;;;4849461;29;19919;-83
2023/09/01 10:28:02;;;;;;;;;;;;;;;;;;4849017;29;19922;-83
2023/09/01 10:30:28;;;;;;;;;;;;;;;;;;4854546;29;20363;-84
2023/09/01 10:33:05;;;;;;;;;;;;;;;;;;4849810;29;19920;-83
2023/09/01 10:35:40;;;;;;;;;;;;;;;;;;4868095;29;19920;-83
2023/09/01 10:38:18;;;;;;;;;;;;;;;;;;4850384;29;19920;-84
2023/09/01 10:40:44;;;;;;;;;;;;;;;;;;4843398;29;20349;-83
2023/09/01 10:43:13;;;;;;;;;;;;;;;;;;4837179;29;20427;-84
2023/09/01 10:45:39;;;;;;;;;;;;;;;;;;4838697;29;19998;-85
2023/09/01 10:48:13;;;;;;;;;;;;;;;;;;4861418;29;20383;-84
2023/09/01 10:50:39;;;;;;;;;;;;;;;;;;4850303;29;19930;-84
2023/09/01 10:53:23;;;;;;;;;;;;;;;;;;4846396;29;19927;-85
2023/09/01 10:56:04;;;;;;;;;;;;;;;;;;4860628;29;20356;-84
2023/09/01 10:58:39;;;;;;;;;;;;;;;;;;4855351;29;20372;-85
2023/09/01 11:01:23;;;;;;;;;;;;;;;;;;4859120;29;20576;-84
2023/09/01 11:03:49;;;;;;;;;;;;;;;;;;4863449;29;19928;-84
2023/09/01 11:06:16;;;;;;;;;;;;;;;;;;4866134;29;19920;-83
2023/09/01 11:09:00;;;;;;;;;;;;;;;;;;4870532;29;19920;-84
2023/09/01 11:11:26;;;;;;;;;;;;;;;;;;4869595;29;20452;-84
2023/09/01 11:13:55;;;;;;;;;;;;;;;;;;4871481;29;20007;-85
2023/09/01 11:16:20;;;;;;;;;;;;;;;;;;4843490;29;19920;-85
2023/09/01 11:18:46;;;;;;;;;;;;;;;;;;4860110;29;19927;-84
2023/09/01 11:21:11;;;;;;;;;;;;;;;;;;4865926;29;20637;-85
2023/09/01 11:23:36;;;;;;;;;;;;;;;;;;4852984;29;20372;-84
2023/09/01 11:26:03;;;;;;;;;;;;;;;;;;4854309;29;19924;-84
2023/09/01 11:28:29;;;;;;;;;;;;;;;;;;4851331;29;19920;-85
2023/09/01 11:30:55;;;;;;;;;;;;;;;;;;4852062;29;20368;-85
2023/09/01 11:33:21;;;;;;;;;;;;;;;;;;4855993;29;19923;-86
2023/09/01 11:35:47;;;;;;;;;;;;;;;;;;4847772;29;20468;-85
2023/09/01 11:38:19;;;;;;;;;;;;;;;;;;4851510;29;20047;-86
2023/09/01 11:40:47;;;;;;;;;;;;;;;;;;4836031;29;19962;-86
2023/09/01 11:43:13;;;;;;;;;;;;;;;;;;4850210;29;19920;-85
2023/09/01 11:45:45;;;;;;;;;;;;;;;;;;4847482;29;20272;-86
2023/09/01 11:48:13;;;;;;;;;;;;;;;;;;4857051;29;20284;-86
2023/09/01 11:50:45;;;;;;;;;;;;;;;;;;4834975;29;20435;-86
2023/09/01 11:53:10;;;;;;;;;;;;;;;;;;4843178;29;20345;-86
2023/09/01 11:55:43;;;;;;;;;;;;;;;;;;4850853;29;19920;-86
2023/09/01 11:58:08;;;;;;;;;;;;;;;;;;4844862;29;19962;-86
2023/09/01 12:00:39;;;;;;;;;;;;;;;;;;4838360;29;20581;-86
2023/09/01 12:03:04;;;;;;;;;;;;;;;;;;4839912;29;19943;-86
2023/09/01 12:05:33;;;;;;;;;;;;;;;;;;4837073;29;19920;-85
2023/09/01 12:08:02;;;;;;;;;;;;;;;;;;4843198;29;20445;-86
2023/09/01 12:10:31;;;;;;;;;;;;;;;;;;4867091;29;19978;-84
2023/09/01 12:13:23;;;;;;;;;;;;;;;;;;4841799;29;20397;-84
2023/09/01 12:16:01;;;;;;;;;;;;;;;;;;4853654;29;20354;-83
2023/09/01 12:18:26;;;;;;;;;;;;;;;;;;4846605;29;20369;-83
2023/09/01 12:20:52;;;;;;;;;;;;;;;;;;4866043;29;19985;-84
2023/09/01 12:23:29;;;;;;;;;;;;;;;;;;4839117;29;19957;-83
2023/09/01 12:25:55;;;;;;;;;;;;;;;;;;4849676;29;19966;-81
2023/09/01 12:28:21;;;;;;;;;;;;;;;;;;4842124;29;20364;-82
2023/09/01 12:30:47;;;;;;;;;;;;;;;;;;4843595;29;19920;-83
2023/09/01 12:33:12;;;;;;;;;;;;;;;;;;4844674;29;20376;-83
2023/09/01 12:35:39;;;;;;;;;;;;;;;;;;4852587;29;19919;-84
2023/09/01 12:38:04;;;;;;;;;;;;;;;;;;4841355;29;19920;-83
2023/09/01 12:40:30;;;;;;;;;;;;;;;;;;4847102;29;19936;-83
2023/09/01 12:42:55;;;;;;;;;;;;;;;;;;4858968;29;20396;-83
2023/09/01 12:45:20;;;;;;;;;;;;;;;;;;4852699;29;19922;-84
2023/09/01 12:47:46;;;;;;;;;;;;;;;;;;4856007;29;19919;-84
2023/09/01 12:50:11;;;;;;;;;;;;;;;;;;4835368;29;19971;-85
2023/09/01 12:52:36;;;;;;;;;;;;;;;;;;4832338;29;19926;-83
2023/09/01 12:55:02;;;;;;;;;;;;;;;;;;4835480;29;19919;-82
2023/09/01 12:57:27;;;;;;;;;;;;;;;;;;4847836;29;19972;-83
2023/09/01 12:59:55;;;;;;;;;;;;;;;;;;4842526;29;19923;-82
2023/09/01 13:02:20;;;;;;;;;;;;;;;;;;4843192;29;20280;-83
2023/09/01 13:04:45;;;;;;;;;;;;;;;;;;4849341;29;19927;-82
2023/09/01 13:07:11;;;;;;;;;;;;;;;;;;4848177;29;19927;-83
2023/09/01 13:09:37;;;;;;;;;;;;;;;;;;4871434;29;19939;-82
2023/09/01 13:12:02;;;;;;;;;;;;;;;;;;4849983;29;20288;-83
2023/09/01 13:14:28;;;;;;;;;;;;;;;;;;4861577;29;20365;-82
2023/09/01 13:16:53;;;;;;;;;;;;;;;;;;4846635;29;19920;-83
2023/09/01 13:19:18;;;;;;;;;;;;;;;;;;4854425;29;19919;-83
2023/09/01 13:21:44;;;;;;;;;;;;;;;;;;4858501;29;20010;-83
2023/09/01 13:24:09;;;;;;;;;;;;;;;;;;4849721;29;19999;-84
2023/09/01 13:26:35;;;;;;;;;;;;;;;;;;4836273;29;19920;-83
2023/09/01 13:29:00;;;;;;;;;;;;;;;;;;4853217;29;19915;-82
2023/09/01 13:31:25;;;;;;;;;;;;;;;;;;4853944;29;19930;-83
2023/09/01 13:33:54;;;;;;;;;;;;;;;;;;4850365;29;20428;-81
2023/09/01 13:36:19;;;;;;;;;;;;;;;;;;4849292;29;20261;-84
2023/09/01 13:38:44;;;;;;;;;;;;;;;;;;4852335;29;19967;-81
2023/09/01 13:41:10;;;;;;;;;;;;;;;;;;4858697;29;19959;-82
2023/09/01 13:43:36;;;;;;;;;;;;;;;;;;4846103;29;19971;-83
2023/09/01 13:46:17;;;;;;;;;;;;;;;;;;4838198;29;19998;-83
2023/09/01 13:48:42;;;;;;;;;;;;;;;;;;4850388;29;19919;-83
2023/09/01 13:51:08;;;;;;;;;;;;;;;;;;4839820;29;19980;-83
2023/09/01 13:53:33;;;;;;;;;;;;;;;;;;4850920;29;19923;-84
2023/09/01 13:55:59;;;;;;;;;;;;;;;;;;4840664;29;19916;-82
2023/09/01 13:58:24;;;;;;;;;;;;;;;;;;4851862;29;19943;-84
2023/09/01 14:00:50;;;;;;;;;;;;;;;;;;4865909;29;20753;-82
2023/09/01 14:03:15;;;;;;;;;;;;;;;;;;4850826;29;19928;-83
2023/09/01 14:05:40;;;;;;;;;;;;;;;;;;4840944;29;20029;-82
2023/09/01 14:08:06;;;;;;;;;;;;;;;;;;4850925;29;19931;-83
2023/09/01 14:10:31;;;;;;;;;;;;;;;;;;4862394;29;19919;-83
2023/09/01 14:12:57;;;;;;;;;;;;;;;;;;4864969;29;20265;-82
2023/09/01 14:15:22;;;;;;;;;;;;;;;;;;4843075;29;19959;-82
2023/09/01 14:17:50;;;;;;;;;;;;;;;;;;4865168;29;19924;-82
2023/09/01 14:20:16;;;;;;;;;;;;;;;;;;4843523;29;20030;-82
2023/09/01 14:22:41;;;;;;;;;;;;;;;;;;4846319;29;20003;-82
2023/09/01 14:25:07;;;;;;;;;;;;;;;;;;4851505;29;19916;-82
2023/09/01 14:27:35;;;;;;;;;;;;;;;;;;4849949;29;19927;-82
2023/09/01 14:30:03;;;;;;;;;;;;;;;;;;4850878;29;19919;-82
2023/09/01 14:32:37;;;;;;;;;;;;;;;;;;4866095;29;19924;-83
2023/09/01 14:35:02;;;;;;;;;;;;;;;;;;4850063;29;19923;-83
2023/09/01 14:37:33;;;;;;;;;;;;;;;;;;4832680;29;19920;-83
2023/09/01 14:39:59;;;;;;;;;;;;;;;;;;4854024;29;19920;-82
2023/09/01 14:42:45;;;;;;;;;;;;;;;;;;4833353;29;20003;-83
2023/09/01 14:45:10;;;;;;;;;;;;;;;;;;4867487;29;19931;-82
2023/09/01 14:47:38;;;;;;;;;;;;;;;;;;4821127;29;19920;-83
2023/09/01 14:50:38;;;;;;;;;;;;;;;;;;4833843;29;19930;-83
2023/09/01 14:53:03;;;;;;;;;;;;;;;;;;4865096;29;20290;-83
2023/09/01 14:55:32;;;;;;;;;;;;;;;;;;4863105;29;19927;-83
2023/09/01 14:58:06;;;;;;;;;;;;;;;;;;4835907;29;20384;-83
2023/09/01 15:00:31;;;;;;;;;;;;;;;;;;4861676;29;19919;-83
2023/09/01 15:02:57;;;;;;;;;;;;;;;;;;4854955;29;19935;-83
2023/09/01 15:05:22;;;;;;;;;;;;;;;;;;4849548;29;19927;-83
2023/09/01 15:07:51;;;;;;;;;;;;;;;;;;4849819;29;20278;-83
2023/09/01 15:10:16;;;;;;;;;;;;;;;;;;4849561;29;19920;-83
2023/09/01 15:12:42;;;;;;;;;;;;;;;;;;4849902;29;19942;-82
2023/09/01 15:15:07;;;;;;;;;;;;;;;;;;4842961;29;20010;-83
2023/09/01 15:17:44;;;;;;;;;;;;;;;;;;4846337;29;20072;-83
2023/09/01 15:20:15;;;;;;;;;;;;;;;;;;4843217;29;19924;-83
2023/09/01 15:22:40;;;;;;;;;;;;;;;;;;4846808;29;19920;-83
2023/09/01 15:25:06;;;;;;;;;;;;;;;;;;4844375;29;19919;-83
2023/09/01 15:27:31;;;;;;;;;;;;;;;;;;4837704;29;19919;-83
2023/09/01 15:29:57;;;;;;;;;;;;;;;;;;4854197;29;19927;-82
2023/09/01 15:32:22;;;;;;;;;;;;;;;;;;4840264;29;20360;-82
2023/09/01 15:34:48;;;;;;;;;;;;;;;;;;4836383;29;19987;-84
2023/09/01 15:37:15;;;;;;;;;;;;;;;;;;4875522;29;19931;-83
2023/09/01 15:39:41;;;;;;;;;;;;;;;;;;4846384;29;20055;-84
2023/09/01 15:42:06;;;;;;;;;;;;;;;;;;4851064;29;20437;-84
2023/09/01 15:44:35;;;;;;;;;;;;;;;;;;4844088;29;19923;-84
2023/09/01 15:47:01;;;;;;;;;;;;;;;;;;4832617;29;20384;-84
2023/09/01 15:49:28;;;;;;;;;;;;;;;;;;4849793;29;20010;-83
2023/09/01 15:51:54;;;;;;;;;;;;;;;;;;4848438;29;19963;-84
2023/09/01 15:54:19;;;;;;;;;;;;;;;;;;4841752;29;19959;-84
2023/09/01 15:56:44;;;;;;;;;;;;;;;;;;4834997;29;19995;-84
2023/09/01 15:59:10;;;;;;;;;;;;;;;;;;4839905;29;19916;-84
2023/09/01 16:01:35;;;;;;;;;;;;;;;;;;4842598;29;20749;-83
2023/09/01 16:04:03;;;;;;;;;;;;;;;;;;4844204;29;20034;-83
2023/09/01 16:06:32;;;;;;;;;;;;;;;;;;4839526;29;19919;-84
2023/09/01 16:08:57;;;;;;;;;;;;;;;;;;4841653;29;19924;-84
2023/09/01 16:11:22;;;;;;;;;;;;;;;;;;4849057;29;19924;-83
2023/09/01 16:13:55;;;;;;;;;;;;;;;;;;4845863;29;19927;-82
2023/09/01 16:16:20;;;;;;;;;;;;;;;;;;4862552;29;19919;-83
2023/09/01 16:18:46;;;;;;;;;;;;;;;;;;4868423;29;20360;-83
2023/09/01 16:21:11;;;;;;;;;;;;;;;;;;4851471;29;19936;-83
2023/09/01 16:23:36;;;;;;;;;;;;;;;;;;4865568;29;19924;-83
2023/09/01 16:26:05;;;;;;;;;;;;;;;;;;4850382;29;19919;-84
2023/09/01 16:28:30;;;;;;;;;;;;;;;;;;4852497;29;19919;-84
2023/09/01 16:30:56;;;;;;;;;;;;;;;;;;4843748;29;20046;-83
2023/09/01 16:33:22;;;;;;;;;;;;;;;;;;4848362;29;19919;-83
2023/09/01 16:55:22;;;;;;;;;;;;;;;;;;4814908;29;19920;-84
2023/09/01 16:57:54;;;;;;;;;;;;;;;;;;4785976;29;19945;-85
2023/09/01 17:00:20;;;;;;;;;;;;;;;;;;4782519;29;20289;-85
2023/09/01 17:02:47;;;;;;;;;;;;;;;;;;4805933;29;19972;-86
2023/09/01 17:05:13;;;;;;;;;;;;;;;;;;4828625;29;20013;-85